This is the latest recevied weather packets stored in our database for station/object KL7LK-13. If no packets are shown the sender has not sent any weather packets the latest 10 day(s).
| Time | Temp. | Humidity | Pressure | Rain* | Wind** | Luminosity | Snow |
|---|---|---|---|---|---|---|---|
| 1777437747 | 3.89° C | 87% | 1033.1 hPa | - | - | 25 W/m² | - |
| 1777435412 | 3.89° C | 87% | 1032.5 hPa | - | - | 28 W/m² | - |
| 1777433527 | 3.89° C | 88% | 1032.1 hPa | - | - | 34 W/m² | - |
| 1777431668 | 4.44° C | 83% | 1031.2 hPa | - | - | 36 W/m² | - |
| 1777428689 | 5.56° C | 84% | 1030 hPa | - | - | 64 W/m² | - |
| 1777417284 | 10.56° C | 58% | 1025.7 hPa | - | - | 73 W/m² | - |
| 1777416788 | 11.11° C | 53% | 1025.5 hPa | - | - | 80 W/m² | - |
| 1777415549 | 12.22° C | 48% | 1025.6 hPa | - | - | 106 W/m² | - |
| 1777413193 | 13.33° C | 45% | 1025.6 hPa | - | - | 407 W/m² | - |
| 1777411954 | 13.33° C | 44% | 1025.5 hPa | - | - | 380 W/m² | - |
| 1777410714 | 12.22° C | 46% | 1025.7 hPa | - | - | 307 W/m² | - |
| 1777408359 | 11.11° C | 49% | 1025.8 hPa | - | - | 209 W/m² | - |
| 1777405879 | 10.56° C | 53% | 1026.1 hPa | - | - | 178 W/m² | - |
| 1777402305 | 8.89° C | 58% | 1026.2 hPa | - | - | 163 W/m² | - |
| 1777400549 | 8.33° C | 59% | 1026.4 hPa | - | - | 159 W/m² | - |
| 1777399929 | 8.33° C | 62% | 1026.4 hPa | - | - | 175 W/m² | - |
| 1777393360 | 5.56° C | 71% | 1027.3 hPa | - | - | 51 W/m² | - |
| 1777388528 | 3.89° C | 77% | 1027 hPa | - | - | 34 W/m² | - |
| 1777383694 | 2.78° C | 80% | 1027.4 hPa | - | - | 2 W/m² | - |
| 1777380720 | 3.33° C | 79% | 1027.1 hPa | - | - | 0 W/m² | - |
| 1777377746 | 4.44° C | 75% | 1026.8 hPa | - | - | 0 W/m² | - |
| 1777374772 | 5.56° C | 71% | 1026.8 hPa | - | - | 0 W/m² | - |
| 1777373533 | 6.11° C | 68% | 1026.7 hPa | - | - | 0 W/m² | - |
| 1777372913 | 6.11° C | 67% | 1026.6 hPa | - | - | 0 W/m² | - |
| 1777371798 | 5.56° C | 69% | 1026.7 hPa | - | - | 0 W/m² | - |
* Rain since midnight (hover to see other rain measurements)
** Current wind speed in m/s (hover to see current wind gust speed)